Strona główna
METAR-TAF:

METAR-TAF

Lotnisko :

Port lotniczy Użhorod

Użhorod, Ukraina

Szerokość geograficzna: 48-38-05N, Długość geograficzna: 022-15-53E, wysokość: 117 m

Aktualna obserwacja pogody

Raport powstał 13 minut temu, godzina 07:00 UTC
Wiatr 6 kt od wschód, zmienny między wschodnio-północny wschód i południowo-południowy wschód
Temperatura 21°C
Wilgotność 60%
Ciśnienie 1020 hPa
Widzialność 10 km lub więcej

METAR: UKLU 230700Z 10003MPS 070V150 9999 NSC 21/13 Q1020 R10/090070 NOSIG

czas: 10:13 (07:13 UTC)

Prognoza

Raport powstał 2 godziny i 3 minut temu, godzina 05:10 UTC
Prognoza ważna od 23 godzina 06 UTC do 23 godzina 15 UTC
Wiatr 4 kt z kierunków zmiennych
Widzialność 10 km lub więcej
Przejściowo
od 23 godzina 06 UTC do 23 godzina 12 UTC
Wiatr 10 kt od południowy wschód w porywach dochodzący do 19 kt
Rozproszone chmury na wysokości 3000 ft, Cumulonimbus.

TAF: UKLU 230510Z 2306/2315 VRB02MPS 9999 NSC TEMPO 2306/2312 14005G10MPS SCT030CB

Obserwacja i prognoza pogody dla ponad 4000 lotnisk (raport METAR i TAF).

Dostępne stacje oznaczono żółtymi i czerwonymi punktami na mapie.

Najedź kursorem aby zobaczyć nazwę stacji.

Kliknij aby zobaczyć obserwacje i prognozy pogody.

Aby zmienić mapę: kliknij na zielony przycisk z czarnym krzyżykiem, aby powiększyć; na zielony przycisk z myślnikiem, aby pomniejszyć; na zielone strzałki, aby przejść do map sąsiednich.


METAR-TAF: